sensor_id;sensor_type;location;lat;lon;timestamp;pressure;altitude;pressure_sealevel;temperature;humidity
53522;BME280;39398;48.382;9.802;2022-09-01T00:01:02;94133.72;;;12.80;100.00
53522;BME280;39398;48.382;9.802;2022-09-01T00:02:05;94131.88;;;12.74;100.00
53522;BME280;39398;48.382;9.802;2022-09-01T00:03:07;94137.56;;;12.65;100.00
53522;BME280;39398;48.382;9.802;2022-09-01T00:04:12;94137.97;;;12.68;100.00
53522;BME280;39398;48.382;9.802;2022-09-01T00:05:14;94142.44;;;12.61;100.00
53522;BME280;39398;48.382;9.802;2022-09-01T00:06:15;94137.53;;;12.58;100.00
53522;BME280;39398;48.382;9.802;2022-09-01T00:07:17;94137.72;;;12.63;100.00
53522;BME280;39398;48.382;9.802;2022-09-01T00:08:18;94137.94;;;12.55;100.00
53522;BME280;39398;48.382;9.802;2022-09-01T00:09:21;94137.94;;;12.55;100.00
53522;BME280;39398;48.382;9.802;2022-09-01T00:10:23;94147.50;;;12.56;100.00
53522;BME280;39398;48.382;9.802;2022-09-01T00:11:27;94131.78;;;12.48;100.00
53522;BME280;39398;48.382;9.802;2022-09-01T00:12:29;94143.81;;;12.57;100.00
53522;BME280;39398;48.382;9.802;2022-09-01T00:13:30;94147.06;;;12.52;100.00
53522;BME280;39398;48.382;9.802;2022-09-01T00:14:35;94143.38;;;12.47;100.00
53522;BME280;39398;48.382;9.802;2022-09-01T00:15:42;94140.56;;;12.48;100.00
53522;BME280;39398;48.382;9.802;2022-09-01T00:16:44;94137.69;;;12.50;100.00
53522;BME280;39398;48.382;9.802;2022-09-01T00:17:48;94143.63;;;12.52;100.00
53522;BME280;39398;48.382;9.802;2022-09-01T00:18:51;94142.59;;;12.53;100.00
53522;BME280;39398;48.382;9.802;2022-09-01T00:19:54;94141.53;;;12.47;100.00
53522;BME280;39398;48.382;9.802;2022-09-01T00:20:56;94145.44;;;12.51;100.00
53522;BME280;39398;48.382;9.802;2022-09-01T00:21:59;94147.88;;;12.46;100.00
53522;BME280;39398;48.382;9.802;2022-09-01T00:23:00;94145.44;;;12.45;100.00
53522;BME280;39398;48.382;9.802;2022-09-01T00:24:03;94146.63;;;12.42;100.00
53522;BME280;39398;48.382;9.802;2022-09-01T00:25:05;94139.97;;;12.60;100.00
53522;BME280;39398;48.382;9.802;2022-09-01T00:26:07;94145.66;;;12.56;100.00
53522;BME280;39398;48.382;9.802;2022-09-01T00:27:09;94143.38;;;12.47;100.00
53522;BME280;39398;48.382;9.802;2022-09-01T00:28:10;94141.81;;;12.59;100.00
53522;BME280;39398;48.382;9.802;2022-09-01T00:29:12;94140.56;;;12.55;100.00
53522;BME280;39398;48.382;9.802;2022-09-01T00:30:14;94142.16;;;12.43;100.00
53522;BME280;39398;48.382;9.802;2022-09-01T00:31:16;94138.28;;;12.45;100.00
53522;BME280;39398;48.382;9.802;2022-09-01T00:32:18;94141.94;;;12.44;100.00
53522;BME280;39398;48.382;9.802;2022-09-01T00:33:19;94141.34;;;12.42;100.00
53522;BME280;39398;48.382;9.802;2022-09-01T00:34:21;94132.56;;;12.35;100.00
53522;BME280;39398;48.382;9.802;2022-09-01T00:35:24;94141.75;;;12.46;100.00
53522;BME280;39398;48.382;9.802;2022-09-01T00:36:26;94139.53;;;12.49;100.00
53522;BME280;39398;48.382;9.802;2022-09-01T00:37:28;94137.25;;;12.40;100.00
53522;BME280;39398;48.382;9.802;2022-09-01T00:38:29;94143.38;;;12.47;100.00
53522;BME280;39398;48.382;9.802;2022-09-01T00:39:31;94148.63;;;12.33;100.00
53522;BME280;39398;48.382;9.802;2022-09-01T00:40:33;94139.25;;;12.31;100.00
53522;BME280;39398;48.382;9.802;2022-09-01T00:41:37;94140.50;;;12.35;100.00
53522;BME280;39398;48.382;9.802;2022-09-01T00:42:40;94142.75;;;12.38;100.00
53522;BME280;39398;48.382;9.802;2022-09-01T00:43:44;94139.72;;;12.41;100.00
53522;BME280;39398;48.382;9.802;2022-09-01T00:44:46;94138.66;;;12.36;100.00
53522;BME280;39398;48.382;9.802;2022-09-01T00:45:48;94136.22;;;12.41;100.00
53522;BME280;39398;48.382;9.802;2022-09-01T00:46:54;94137.88;;;12.42;100.00
53522;BME280;39398;48.382;9.802;2022-09-01T00:47:56;94141.34;;;12.42;100.00
53522;BME280;39398;48.382;9.802;2022-09-01T00:49:02;94140.56;;;12.48;100.00
53522;BME280;39398;48.382;9.802;2022-09-01T00:50:07;94138.31;;;12.52;100.00
53522;BME280;39398;48.382;9.802;2022-09-01T00:51:11;94142.38;;;12.48;100.00
53522;BME280;39398;48.382;9.802;2022-09-01T00:52:16;94132.41;;;12.50;100.00
53522;BME280;39398;48.382;9.802;2022-09-01T00:53:19;94135.09;;;12.63;100.00
53522;BME280;39398;48.382;9.802;2022-09-01T00:54:23;94134.28;;;12.69;100.00
53522;BME280;39398;48.382;9.802;2022-09-01T00:55:28;94131.47;;;12.71;100.00
53522;BME280;39398;48.382;9.802;2022-09-01T00:56:33;94134.09;;;12.71;100.00
53522;BME280;39398;48.382;9.802;2022-09-01T00:57:38;94138.81;;;12.82;100.00
53522;BME280;39398;48.382;9.802;2022-09-01T00:58:40;94131.91;;;12.81;100.00
53522;BME280;39398;48.382;9.802;2022-09-01T00:59:56;94139.59;;;12.76;100.00
53522;BME280;39398;48.382;9.802;2022-09-01T01:00:59;94130.25;;;12.73;100.00
53522;BME280;39398;48.382;9.802;2022-09-01T01:02:00;94128.84;;;12.84;100.00
53522;BME280;39398;48.382;9.802;2022-09-01T01:03:02;94134.94;;;12.85;100.00
53522;BME280;39398;48.382;9.802;2022-09-01T01:04:06;94133.53;;;12.95;100.00
53522;BME280;39398;48.382;9.802;2022-09-01T01:05:08;94127.66;;;13.07;100.00
53522;BME280;39398;48.382;9.802;2022-09-01T01:06:17;94126.44;;;13.02;100.00
53522;BME280;39398;48.382;9.802;2022-09-01T01:07:20;94122.56;;;13.05;100.00
53522;BME280;39398;48.382;9.802;2022-09-01T01:08:24;94126.84;;;12.99;100.00
53522;BME280;39398;48.382;9.802;2022-09-01T01:09:29;94120.09;;;12.84;100.00
53522;BME280;39398;48.382;9.802;2022-09-01T01:10:34;94131.09;;;12.87;100.00
53522;BME280;39398;48.382;9.802;2022-09-01T01:11:38;94123.53;;;12.77;100.00
53522;BME280;39398;48.382;9.802;2022-09-01T01:12:40;94133.34;;;12.84;100.00
53522;BME280;39398;48.382;9.802;2022-09-01T01:13:50;94130.88;;;12.89;100.00
53522;BME280;39398;48.382;9.802;2022-09-01T01:14:52;94133.50;;;12.75;100.00
53522;BME280;39398;48.382;9.802;2022-09-01T01:15:53;94134.31;;;12.83;100.00
53522;BME280;39398;48.382;9.802;2022-09-01T01:16:58;94134.16;;;12.84;100.00
53522;BME280;39398;48.382;9.802;2022-09-01T01:18:00;94127.22;;;12.83;100.00
53522;BME280;39398;48.382;9.802;2022-09-01T01:19:02;94128.63;;;12.79;100.00
53522;BME280;39398;48.382;9.802;2022-09-01T01:20:06;94133.75;;;12.87;100.00
53522;BME280;39398;48.382;9.802;2022-09-01T01:21:14;94131.91;;;12.88;100.00
53522;BME280;39398;48.382;9.802;2022-09-01T01:22:22;94122.72;;;12.77;100.00
53522;BME280;39398;48.382;9.802;2022-09-01T01:23:30;94110.53;;;12.96;100.00
53522;BME280;39398;48.382;9.802;2022-09-01T01:24:35;94123.97;;;12.88;100.00
53522;BME280;39398;48.382;9.802;2022-09-01T01:25:39;94119.88;;;12.85;100.00
53522;BME280;39398;48.382;9.802;2022-09-01T01:26:41;94122.72;;;12.84;100.00
53522;BME280;39398;48.382;9.802;2022-09-01T01:27:42;94122.34;;;12.87;100.00
53522;BME280;39398;48.382;9.802;2022-09-01T01:28:44;94118.66;;;12.88;100.00
53522;BME280;39398;48.382;9.802;2022-09-01T01:29:45;94121.31;;;12.88;100.00
53522;BME280;39398;48.382;9.802;2022-09-01T01:30:51;94113.13;;;12.83;100.00
53522;BME280;39398;48.382;9.802;2022-09-01T01:31:53;94115.38;;;12.86;100.00
53522;BME280;39398;48.382;9.802;2022-09-01T01:32:54;94115.59;;;12.91;100.00
53522;BME280;39398;48.382;9.802;2022-09-01T01:33:56;94118.09;;;13.12;100.00
53522;BME280;39398;48.382;9.802;2022-09-01T01:34:57;94114.22;;;13.08;100.00
53522;BME280;39398;48.382;9.802;2022-09-01T01:35:59;94123.81;;;13.09;100.00
53522;BME280;39398;48.382;9.802;2022-09-01T01:37:01;94118.69;;;13.01;100.00
53522;BME280;39398;48.382;9.802;2022-09-01T01:38:04;94116.25;;;13.06;100.00
53522;BME280;39398;48.382;9.802;2022-09-01T01:39:08;94114.00;;;13.16;100.00
53522;BME280;39398;48.382;9.802;2022-09-01T01:40:13;94112.97;;;13.04;100.00
53522;BME280;39398;48.382;9.802;2022-09-01T01:41:16;94118.69;;;13.08;100.00
53522;BME280;39398;48.382;9.802;2022-09-01T01:42:17;94117.69;;;13.09;100.00
53522;BME280;39398;48.382;9.802;2022-09-01T01:43:19;94114.22;;;13.08;100.00
53522;BME280;39398;48.382;9.802;2022-09-01T01:44:23;94120.34;;;13.22;100.00
53522;BME280;39398;48.382;9.802;2022-09-01T01:45:25;94114.47;;;13.26;100.00
53522;BME280;39398;48.382;9.802;2022-09-01T01:46:27;94110.75;;;13.14;100.00
53522;BME280;39398;48.382;9.802;2022-09-01T01:47:28;94112.38;;;13.09;100.00
53522;BME280;39398;48.382;9.802;2022-09-01T01:48:30;94118.28;;;13.24;100.00
53522;BME280;39398;48.382;9.802;2022-09-01T01:49:32;94113.22;;;13.16;100.00
53522;BME280;39398;48.382;9.802;2022-09-01T01:50:35;94118.75;;;13.28;100.00
53522;BME280;39398;48.382;9.802;2022-09-01T01:51:38;94115.09;;;13.35;100.00
53522;BME280;39398;48.382;9.802;2022-09-01T01:52:40;94110.41;;;13.37;100.00
53522;BME280;39398;48.382;9.802;2022-09-01T01:53:46;94106.91;;;13.37;100.00
53522;BME280;39398;48.382;9.802;2022-09-01T01:54:48;94117.31;;;13.38;100.00
53522;BME280;39398;48.382;9.802;2022-09-01T01:55:51;94119.75;;;13.33;100.00
53522;BME280;39398;48.382;9.802;2022-09-01T01:56:52;94114.28;;;13.41;100.00
53522;BME280;39398;48.382;9.802;2022-09-01T01:57:54;94113.88;;;13.44;100.00
53522;BME280;39398;48.382;9.802;2022-09-01T01:58:56;94105.28;;;13.42;100.00
53522;BME280;39398;48.382;9.802;2022-09-01T01:59:57;94109.56;;;13.37;100.00
53522;BME280;39398;48.382;9.802;2022-09-01T02:00:59;94107.75;;;13.31;100.00
53522;BME280;39398;48.382;9.802;2022-09-01T02:02:01;94109.16;;;13.40;100.00
53522;BME280;39398;48.382;9.802;2022-09-01T02:03:03;94110.59;;;13.36;100.00
53522;BME280;39398;48.382;9.802;2022-09-01T02:04:05;94106.09;;;13.36;100.00
53522;BME280;39398;48.382;9.802;2022-09-01T02:05:07;94118.13;;;13.39;100.00
53522;BME280;39398;48.382;9.802;2022-09-01T02:06:09;94115.09;;;13.29;100.00
53522;BME280;39398;48.382;9.802;2022-09-01T02:07:12;94114.06;;;13.36;100.00
53522;BME280;39398;48.382;9.802;2022-09-01T02:08:15;94112.44;;;13.29;100.00
53522;BME280;39398;48.382;9.802;2022-09-01T02:09:19;94108.72;;;13.16;100.00
53522;BME280;39398;48.382;9.802;2022-09-01T02:10:23;94112.22;;;13.37;100.00
53522;BME280;39398;48.382;9.802;2022-09-01T02:11:26;94105.91;;;13.24;100.00
53522;BME280;39398;48.382;9.802;2022-09-01T02:12:28;94108.31;;;13.19;100.00
53522;BME280;39398;48.382;9.802;2022-09-01T02:13:29;94104.84;;;13.19;100.00
53522;BME280;39398;48.382;9.802;2022-09-01T02:14:31;94104.66;;;13.27;100.00
53522;BME280;39398;48.382;9.802;2022-09-01T02:15:35;94108.94;;;13.08;100.00
53522;BME280;39398;48.382;9.802;2022-09-01T02:16:37;94108.72;;;13.10;100.00
53522;BME280;39398;48.382;9.802;2022-09-01T02:17:39;94110.94;;;13.06;100.00
53522;BME280;39398;48.382;9.802;2022-09-01T02:18:42;94116.66;;;13.03;100.00
53522;BME280;39398;48.382;9.802;2022-09-01T02:19:44;94104.84;;;13.19;100.00
53522;BME280;39398;48.382;9.802;2022-09-01T02:20:47;94107.50;;;13.12;100.00
53522;BME280;39398;48.382;9.802;2022-09-01T02:21:49;94101.78;;;13.22;100.00
53522;BME280;39398;48.382;9.802;2022-09-01T02:22:51;94108.16;;;13.34;100.00
53522;BME280;39398;48.382;9.802;2022-09-01T02:23:55;94095.31;;;13.24;100.00
53522;BME280;39398;48.382;9.802;2022-09-01T02:24:57;94099.31;;;13.20;100.00
53522;BME280;39398;48.382;9.802;2022-09-01T02:25:58;94103.25;;;13.24;100.00
53522;BME280;39398;48.382;9.802;2022-09-01T02:27:18;94102.84;;;13.34;100.00
53522;BME280;39398;48.382;9.802;2022-09-01T02:28:21;94096.53;;;13.42;100.00
53522;BME280;39398;48.382;9.802;2022-09-01T02:29:23;94099.16;;;13.48;100.00
53522;BME280;39398;48.382;9.802;2022-09-01T02:30:24;94094.28;;;13.45;100.00
53522;BME280;39398;48.382;9.802;2022-09-01T02:31:27;94093.28;;;13.46;100.00
53522;BME280;39398;48.382;9.802;2022-09-01T02:32:28;94101.59;;;13.37;100.00
53522;BME280;39398;48.382;9.802;2022-09-01T02:33:31;94102.84;;;13.41;100.00
53522;BME280;39398;48.382;9.802;2022-09-01T02:34:32;94092.44;;;13.46;100.00
53522;BME280;39398;48.382;9.802;2022-09-01T02:35:34;94099.97;;;13.49;100.00
53522;BME280;39398;48.382;9.802;2022-09-01T02:36:36;94095.91;;;13.53;100.00
53522;BME280;39398;48.382;9.802;2022-09-01T02:37:38;94092.63;;;13.51;100.00
53522;BME280;39398;48.382;9.802;2022-09-01T02:38:40;94094.88;;;13.47;100.00
53522;BME280;39398;48.382;9.802;2022-09-01T02:39:46;94098.16;;;13.36;100.00
53522;BME280;39398;48.382;9.802;2022-09-01T02:40:47;94102.63;;;13.42;100.00
53522;BME280;39398;48.382;9.802;2022-09-01T02:41:50;94096.31;;;13.50;100.00
53522;BME280;39398;48.382;9.802;2022-09-01T02:42:53;94089.19;;;13.44;100.00
53522;BME280;39398;48.382;9.802;2022-09-01T02:43:54;94094.66;;;13.49;100.00
53522;BME280;39398;48.382;9.802;2022-09-01T02:44:56;94095.47;;;13.23;100.00
53522;BME280;39398;48.382;9.802;2022-09-01T02:45:59;94089.19;;;13.37;100.00
53522;BME280;39398;48.382;9.802;2022-09-01T02:47:01;94098.56;;;13.26;100.00
53522;BME280;39398;48.382;9.802;2022-09-01T02:48:02;94102.44;;;13.31;100.00
53522;BME280;39398;48.382;9.802;2022-09-01T02:49:05;94096.50;;;13.22;100.00
53522;BME280;39398;48.382;9.802;2022-09-01T02:50:07;94094.03;;;13.20;100.00
53522;BME280;39398;48.382;9.802;2022-09-01T02:51:11;94102.03;;;13.34;100.00
53522;BME280;39398;48.382;9.802;2022-09-01T02:52:13;94093.84;;;13.55;100.00
53522;BME280;39398;48.382;9.802;2022-09-01T02:53:14;94100.59;;;13.31;100.00
53522;BME280;39398;48.382;9.802;2022-09-01T02:54:16;94099.19;;;13.29;100.00
53522;BME280;39398;48.382;9.802;2022-09-01T02:55:18;94102.03;;;13.47;100.00
53522;BME280;39398;48.382;9.802;2022-09-01T02:56:21;94090.19;;;13.36;100.00
53522;BME280;39398;48.382;9.802;2022-09-01T02:57:25;94089.59;;;13.34;100.00
53522;BME280;39398;48.382;9.802;2022-09-01T02:58:30;94094.06;;;13.47;100.00
53522;BME280;39398;48.382;9.802;2022-09-01T02:59:32;94093.66;;;13.50;100.00
53522;BME280;39398;48.382;9.802;2022-09-01T03:00:33;94095.50;;;13.43;100.00
53522;BME280;39398;48.382;9.802;2022-09-01T03:01:35;94091.44;;;13.47;100.00
53522;BME280;39398;48.382;9.802;2022-09-01T03:02:36;94095.91;;;13.46;100.00
53522;BME280;39398;48.382;9.802;2022-09-01T03:03:38;94087.75;;;13.41;100.00
53522;BME280;39398;48.382;9.802;2022-09-01T03:04:39;94093.28;;;13.46;100.00
53522;BME280;39398;48.382;9.802;2022-09-01T03:05:41;94091.00;;;13.57;100.00
53522;BME280;39398;48.382;9.802;2022-09-01T03:06:43;94090.19;;;13.43;100.00
53522;BME280;39398;48.382;9.802;2022-09-01T03:07:44;94102.22;;;13.59;100.00
53522;BME280;39398;48.382;9.802;2022-09-01T03:08:46;94091.19;;;13.62;100.00
53522;BME280;39398;48.382;9.802;2022-09-01T03:09:48;94093.84;;;13.55;100.00
53522;BME280;39398;48.382;9.802;2022-09-01T03:10:50;94091.03;;;13.43;100.00
53522;BME280;39398;48.382;9.802;2022-09-01T03:11:53;94094.66;;;13.49;100.00
53522;BME280;39398;48.382;9.802;2022-09-01T03:12:55;94095.06;;;13.53;100.00
53522;BME280;39398;48.382;9.802;2022-09-01T03:13:58;94093.03;;;13.55;100.00
53522;BME280;39398;48.382;9.802;2022-09-01T03:14:59;94092.63;;;13.58;100.00
53522;BME280;39398;48.382;9.802;2022-09-01T03:16:01;94089.56;;;13.61;100.00
53522;BME280;39398;48.382;9.802;2022-09-01T03:17:03;94099.75;;;13.70;100.00
53522;BME280;39398;48.382;9.802;2022-09-01T03:18:07;94092.22;;;13.61;100.00
53522;BME280;39398;48.382;9.802;2022-09-01T03:19:09;94094.25;;;13.65;100.00
53522;BME280;39398;48.382;9.802;2022-09-01T03:20:10;94088.75;;;13.60;100.00
53522;BME280;39398;48.382;9.802;2022-09-01T03:21:12;94086.72;;;13.69;100.00
53522;BME280;39398;48.382;9.802;2022-09-01T03:22:13;94094.25;;;13.65;100.00
53522;BME280;39398;48.382;9.802;2022-09-01T03:23:16;94091.59;;;13.65;100.00
53522;BME280;39398;48.382;9.802;2022-09-01T03:24:19;94089.38;;;13.42;100.00
53522;BME280;39398;48.382;9.802;2022-09-01T03:25:21;94081.00;;;13.59;100.00
53522;BME280;39398;48.382;9.802;2022-09-01T03:26:23;94097.75;;;13.39;100.00
53522;BME280;39398;48.382;9.802;2022-09-01T03:27:24;94093.03;;;13.55;100.00
53522;BME280;39398;48.382;9.802;2022-09-01T03:28:27;94092.84;;;13.63;100.00
53522;BME280;39398;48.382;9.802;2022-09-01T03:29:30;94093.84;;;13.62;100.00
53522;BME280;39398;48.382;9.802;2022-09-01T03:30:33;94082.41;;;13.68;100.00
53522;BME280;39398;48.382;9.802;2022-09-01T03:31:36;94092.63;;;13.58;100.00
53522;BME280;39398;48.382;9.802;2022-09-01T03:32:38;94082.41;;;13.68;100.00
53522;BME280;39398;48.382;9.802;2022-09-01T03:33:40;94082.81;;;13.65;100.00
53522;BME280;39398;48.382;9.802;2022-09-01T03:34:42;94084.47;;;13.72;100.00
53522;BME280;39398;48.382;9.802;2022-09-01T03:35:44;94084.06;;;13.56;100.00
53522;BME280;39398;48.382;9.802;2022-09-01T03:36:45;94081.22;;;13.57;100.00
53522;BME280;39398;48.382;9.802;2022-09-01T03:37:47;94079.97;;;13.66;100.00
53522;BME280;39398;48.382;9.802;2022-09-01T03:38:49;94082.66;;;13.60;100.00
53522;BME280;39398;48.382;9.802;2022-09-01T03:39:52;94080.00;;;13.60;100.00
53522;BME280;39398;48.382;9.802;2022-09-01T03:40:59;94086.72;;;13.56;100.00
53522;BME280;39398;48.382;9.802;2022-09-01T03:42:01;94081.22;;;13.51;100.00
53522;BME280;39398;48.382;9.802;2022-09-01T03:43:05;94084.47;;;13.46;100.00
53522;BME280;39398;48.382;9.802;2022-09-01T03:44:06;94083.66;;;13.52;100.00
53522;BME280;39398;48.382;9.802;2022-09-01T03:45:10;94088.34;;;13.57;100.00
53522;BME280;39398;48.382;9.802;2022-09-01T03:46:12;94081.63;;;13.41;100.00
53522;BME280;39398;48.382;9.802;2022-09-01T03:47:14;94084.28;;;13.28;100.00
53522;BME280;39398;48.382;9.802;2022-09-01T03:48:16;94086.31;;;13.25;100.00
53522;BME280;39398;48.382;9.802;2022-09-01T03:49:17;94086.91;;;13.21;100.00
53522;BME280;39398;48.382;9.802;2022-09-01T03:50:21;94076.28;;;13.14;100.00
53522;BME280;39398;48.382;9.802;2022-09-01T03:51:23;94074.88;;;13.12;100.00
53522;BME280;39398;48.382;9.802;2022-09-01T03:52:25;94078.34;;;13.12;100.00
53522;BME280;39398;48.382;9.802;2022-09-01T03:53:28;94083.41;;;13.07;100.00
53522;BME280;39398;48.382;9.802;2022-09-01T03:54:30;94083.63;;;13.12;100.00
53522;BME280;39398;48.382;9.802;2022-09-01T03:55:33;94081.38;;;13.02;100.00
53522;BME280;39398;48.382;9.802;2022-09-01T03:56:35;94080.38;;;13.10;100.00
53522;BME280;39398;48.382;9.802;2022-09-01T03:57:36;94075.28;;;13.02;100.00
53522;BME280;39398;48.382;9.802;2022-09-01T03:58:38;94072.63;;;13.02;100.00
53522;BME280;39398;48.382;9.802;2022-09-01T03:59:39;94075.47;;;13.00;100.00
53522;BME280;39398;48.382;9.802;2022-09-01T04:00:45;94073.63;;;13.01;100.00
53522;BME280;39398;48.382;9.802;2022-09-01T04:01:49;94075.47;;;13.14;100.00
53522;BME280;39398;48.382;9.802;2022-09-01T04:02:53;94077.53;;;13.05;100.00
53522;BME280;39398;48.382;9.802;2022-09-01T04:03:56;94075.69;;;12.99;100.00
53522;BME280;39398;48.382;9.802;2022-09-01T04:04:58;94076.50;;;12.99;100.00
53522;BME280;39398;48.382;9.802;2022-09-01T04:06:01;94079.16;;;12.99;100.00
53522;BME280;39398;48.382;9.802;2022-09-01T04:07:02;94078.13;;;13.07;100.00
53522;BME280;39398;48.382;9.802;2022-09-01T04:08:06;94075.88;;;12.91;100.00
53522;BME280;39398;48.382;9.802;2022-09-01T04:09:08;94078.50;;;12.91;100.00
53522;BME280;39398;48.382;9.802;2022-09-01T04:10:10;94074.44;;;12.88;100.00
53522;BME280;39398;48.382;9.802;2022-09-01T04:11:14;94081.59;;;13.08;100.00
53522;BME280;39398;48.382;9.802;2022-09-01T04:12:16;94077.13;;;13.15;100.00
53522;BME280;39398;48.382;9.802;2022-09-01T04:13:19;94073.44;;;13.09;100.00
53522;BME280;39398;48.382;9.802;2022-09-01T04:14:21;94074.66;;;13.07;100.00
53522;BME280;39398;48.382;9.802;2022-09-01T04:15:25;94071.44;;;13.24;100.00
53522;BME280;39398;48.382;9.802;2022-09-01T04:16:30;94074.44;;;13.01;100.00
53522;BME280;39398;48.382;9.802;2022-09-01T04:17:31;94072.22;;;13.18;100.00
53522;BME280;39398;48.382;9.802;2022-09-01T04:18:33;94069.56;;;13.12;100.00
53522;BME280;39398;48.382;9.802;2022-09-01T04:19:36;94072.63;;;13.02;100.00
53522;BME280;39398;48.382;9.802;2022-09-01T04:20:39;94069.34;;;13.00;100.00
53522;BME280;39398;48.382;9.802;2022-09-01T04:21:42;94073.44;;;13.02;100.00
53522;BME280;39398;48.382;9.802;2022-09-01T04:22:43;94072.59;;;12.89;100.00
53522;BME280;39398;48.382;9.802;2022-09-01T04:23:45;94079.31;;;12.91;100.00
53522;BME280;39398;48.382;9.802;2022-09-01T04:24:46;94072.19;;;12.92;100.00
53522;BME280;39398;48.382;9.802;2022-09-01T04:25:48;94079.78;;;13.08;100.00
53522;BME280;39398;48.382;9.802;2022-09-01T04:26:51;94078.75;;;12.96;100.00
53522;BME280;39398;48.382;9.802;2022-09-01T04:27:53;94079.34;;;13.04;100.00
53522;BME280;39398;48.382;9.802;2022-09-01T04:28:54;94080.19;;;13.05;100.00
53522;BME280;39398;48.382;9.802;2022-09-01T04:29:56;94072.41;;;12.97;100.00
53522;BME280;39398;48.382;9.802;2022-09-01T04:30:58;94075.88;;;13.04;100.00
53522;BME280;39398;48.382;9.802;2022-09-01T04:32:04;94075.28;;;13.15;100.00
53522;BME280;39398;48.382;9.802;2022-09-01T04:33:06;94076.50;;;13.13;100.00
53522;BME280;39398;48.382;9.802;2022-09-01T04:34:08;94070.78;;;12.96;100.00
53522;BME280;39398;48.382;9.802;2022-09-01T04:35:09;94068.34;;;13.21;100.00
53522;BME280;39398;48.382;9.802;2022-09-01T04:36:14;94068.78;;;13.24;100.00
53522;BME280;39398;48.382;9.802;2022-09-01T04:37:17;94079.19;;;13.26;100.00
53522;BME280;39398;48.382;9.802;2022-09-01T04:38:19;94070.41;;;13.25;100.00
53522;BME280;39398;48.382;9.802;2022-09-01T04:39:22;94072.25;;;13.32;100.00
53522;BME280;39398;48.382;9.802;2022-09-01T04:40:24;94064.09;;;13.26;100.00
53522;BME280;39398;48.382;9.802;2022-09-01T04:41:30;94074.09;;;13.31;100.00
53522;BME280;39398;48.382;9.802;2022-09-01T04:42:32;94065.31;;;13.37;100.00
53522;BME280;39398;48.382;9.802;2022-09-01T04:43:34;94070.22;;;13.34;100.00
53522;BME280;39398;48.382;9.802;2022-09-01T04:44:35;94069.16;;;13.21;100.00
53522;BME280;39398;48.382;9.802;2022-09-01T04:45:37;94059.63;;;13.34;100.00
53522;BME280;39398;48.382;9.802;2022-09-01T04:46:41;94063.25;;;13.39;100.00
53522;BME280;39398;48.382;9.802;2022-09-01T04:47:44;94070.81;;;13.49;100.00
53522;BME280;39398;48.382;9.802;2022-09-01T04:48:46;94065.09;;;13.52;100.00
53522;BME280;39398;48.382;9.802;2022-09-01T04:49:47;94066.53;;;13.41;100.00
53522;BME280;39398;48.382;9.802;2022-09-01T04:50:49;94061.84;;;13.30;100.00
53522;BME280;39398;48.382;9.802;2022-09-01T04:51:51;94064.69;;;13.48;100.00
53522;BME280;39398;48.382;9.802;2022-09-01T04:52:54;94065.50;;;13.49;100.00
53522;BME280;39398;48.382;9.802;2022-09-01T04:53:56;94069.41;;;13.53;100.00
53522;BME280;39398;48.382;9.802;2022-09-01T04:54:58;94074.69;;;13.40;100.00
53522;BME280;39398;48.382;9.802;2022-09-01T04:56:02;94068.56;;;13.33;100.00
53522;BME280;39398;48.382;9.802;2022-09-01T04:57:04;94071.63;;;13.49;100.00
53522;BME280;39398;48.382;9.802;2022-09-01T04:58:05;94075.09;;;13.57;100.00
53522;BME280;39398;48.382;9.802;2022-09-01T04:59:12;94079.38;;;13.58;100.00
53522;BME280;39398;48.382;9.802;2022-09-01T05:00:15;94068.97;;;13.56;100.00
53522;BME280;39398;48.382;9.802;2022-09-01T05:01:19;94070.63;;;13.51;100.00
53522;BME280;39398;48.382;9.802;2022-09-01T05:02:21;94073.44;;;13.62;100.00
53522;BME280;39398;48.382;9.802;2022-09-01T05:03:23;94065.69;;;13.61;100.00
53522;BME280;39398;48.382;9.802;2022-09-01T05:04:27;94067.97;;;13.37;100.00
53522;BME280;39398;48.382;9.802;2022-09-01T05:05:35;94072.44;;;13.50;100.00
53522;BME280;39398;48.382;9.802;2022-09-01T05:06:39;94073.06;;;13.45;100.00
53522;BME280;39398;48.382;9.802;2022-09-01T05:07:41;94069.59;;;13.45;100.00
53522;BME280;39398;48.382;9.802;2022-09-01T05:08:43;94066.13;;;13.38;100.00
53522;BME280;39398;48.382;9.802;2022-09-01T05:09:46;94067.75;;;13.25;100.00
53522;BME280;39398;48.382;9.802;2022-09-01T05:10:49;94066.94;;;13.25;100.00
53522;BME280;39398;48.382;9.802;2022-09-01T05:11:51;94067.34;;;13.29;100.00
53522;BME280;39398;48.382;9.802;2022-09-01T05:12:53;94071.84;;;13.35;100.00
53522;BME280;39398;48.382;9.802;2022-09-01T05:13:55;94071.03;;;13.34;100.00
53522;BME280;39398;48.382;9.802;2022-09-01T05:14:56;94067.53;;;13.27;100.00
53522;BME280;39398;48.382;9.802;2022-09-01T05:16:00;94075.88;;;13.24;100.00
53522;BME280;39398;48.382;9.802;2022-09-01T05:17:03;94077.34;;;13.40;100.00
53522;BME280;39398;48.382;9.802;2022-09-01T05:18:04;94077.72;;;13.23;100.00
53522;BME280;39398;48.382;9.802;2022-09-01T05:19:08;94076.94;;;13.43;100.00
53522;BME280;39398;48.382;9.802;2022-09-01T05:20:10;94078.34;;;13.52;100.00
53522;BME280;39398;48.382;9.802;2022-09-01T05:21:14;94074.72;;;13.46;100.00
53522;BME280;39398;48.382;9.802;2022-09-01T05:22:16;94072.25;;;13.38;100.00
53522;BME280;39398;48.382;9.802;2022-09-01T05:23:19;94065.28;;;13.57;100.00
53522;BME280;39398;48.382;9.802;2022-09-01T05:24:20;94074.47;;;13.48;100.00
53522;BME280;39398;48.382;9.802;2022-09-01T05:25:22;94069.97;;;13.62;100.00
53522;BME280;39398;48.382;9.802;2022-09-01T05:26:26;94072.59;;;13.68;100.00
53522;BME280;39398;48.382;9.802;2022-09-01T05:27:28;94073.00;;;13.85;100.00
53522;BME280;39398;48.382;9.802;2022-09-01T05:28:29;94071.16;;;13.86;100.00